Time;durP1;ratioP1;P1;durP2;ratioP2;P2;SDS_P1;SDS_P2;PMS_P1;PMS_P2;Temp;Humidity;BMP_temperature;BMP_pressure;BME280_temperature;BME280_humidity;BME280_pressure;Samples;Min_cycle;Max_cycle;Signal;HPM_P1;HPM_P2
2023/12/13 00:00:07;;;;;;;;;;;;;;;;;;5011982;28;19941;-76
2023/12/13 00:02:33;;;;;;;;;;;;;;;;;;5005339;28;19924;-76
2023/12/13 00:04:58;;;;;;;;;;;;;;;;;;5005183;28;19921;-78
2023/12/13 00:07:23;;;;;;;;;;;;;;;;;;5018761;28;19929;-78
2023/12/13 00:09:48;;;;;;;;;;;;;;;;;;5020370;28;19921;-77
2023/12/13 00:12:14;;;;;;;;;;;;;;;;;;5018732;28;19965;-79
2023/12/13 00:14:39;;;;;;;;;;;;;;;;;;5017411;28;20395;-78
2023/12/13 00:17:08;;;;;;;;;;;;;;;;;;5001276;28;19998;-78
2023/12/13 00:19:33;;;;;;;;;;;;;;;;;;5002356;28;20173;-79
2023/12/13 00:21:59;;;;;;;;;;;;;;;;;;5000583;28;21857;-79
2023/12/13 00:24:24;;;;;;;;;;;;;;;;;;5016288;28;19932;-79
2023/12/13 00:26:49;;;;;;;;;;;;;;;;;;5002664;28;19953;-79
2023/12/13 00:29:15;;;;;;;;;;;;;;;;;;5031527;28;19917;-78
2023/12/13 00:31:40;;;;;;;;;;;;;;;;;;5017320;28;19922;-79
2023/12/13 00:34:05;;;;;;;;;;;;;;;;;;5014078;28;20404;-79
2023/12/13 00:36:31;;;;;;;;;;;;;;;;;;5001913;28;20019;-79
2023/12/13 00:38:57;;;;;;;;;;;;;;;;;;5003596;28;19956;-78
2023/12/13 00:41:22;;;;;;;;;;;;;;;;;;5015094;28;19917;-78
2023/12/13 00:43:47;;;;;;;;;;;;;;;;;;5002637;28;20012;-79
2023/12/13 00:46:13;;;;;;;;;;;;;;;;;;5001985;28;20047;-78
2023/12/13 00:48:38;;;;;;;;;;;;;;;;;;5016710;28;19929;-78
2023/12/13 00:51:04;;;;;;;;;;;;;;;;;;5013929;28;20019;-79
2023/12/13 00:53:29;;;;;;;;;;;;;;;;;;5001293;28;20008;-78
2023/12/13 00:55:54;;;;;;;;;;;;;;;;;;5015575;28;20204;-78
2023/12/13 00:58:20;;;;;;;;;;;;;;;;;;5001119;28;19914;-77
2023/12/13 01:00:45;;;;;;;;;;;;;;;;;;5016052;28;19921;-75
2023/12/13 01:03:10;;;;;;;;;;;;;;;;;;5016128;28;20023;-77
2023/12/13 01:05:36;;;;;;;;;;;;;;;;;;5016276;28;19925;-77
2023/12/13 01:08:01;;;;;;;;;;;;;;;;;;5003040;28;19925;-78
2023/12/13 01:10:28;;;;;;;;;;;;;;;;;;5001461;28;19921;-78
2023/12/13 01:12:54;;;;;;;;;;;;;;;;;;5002282;28;19922;-79
2023/12/13 01:15:19;;;;;;;;;;;;;;;;;;5014766;28;19929;-79
2023/12/13 01:17:44;;;;;;;;;;;;;;;;;;5002876;28;19967;-79
2023/12/13 01:20:09;;;;;;;;;;;;;;;;;;5012306;28;19921;-79
2023/12/13 01:22:35;;;;;;;;;;;;;;;;;;4996176;28;20028;-78
2023/12/13 01:25:00;;;;;;;;;;;;;;;;;;4999975;28;19928;-77
2023/12/13 01:27:26;;;;;;;;;;;;;;;;;;5000687;28;19917;-78
2023/12/13 01:29:51;;;;;;;;;;;;;;;;;;5014002;28;20003;-78
2023/12/13 01:32:16;;;;;;;;;;;;;;;;;;5016534;28;20520;-77
2023/12/13 01:34:41;;;;;;;;;;;;;;;;;;5003464;28;19921;-77
2023/12/13 01:37:07;;;;;;;;;;;;;;;;;;5001487;28;20005;-77
2023/12/13 01:39:32;;;;;;;;;;;;;;;;;;5018129;28;19983;-77
2023/12/13 01:41:57;;;;;;;;;;;;;;;;;;5003988;28;19921;-78
2023/12/13 01:44:23;;;;;;;;;;;;;;;;;;5004307;28;20008;-77
2023/12/13 01:46:48;;;;;;;;;;;;;;;;;;5004029;28;19921;-78
2023/12/13 01:49:13;;;;;;;;;;;;;;;;;;5015637;28;19922;-78
2023/12/13 01:51:38;;;;;;;;;;;;;;;;;;5002173;28;19964;-78
2023/12/13 01:54:04;;;;;;;;;;;;;;;;;;5002852;28;19921;-78
2023/12/13 01:56:29;;;;;;;;;;;;;;;;;;5019537;28;19921;-78
2023/12/13 01:58:54;;;;;;;;;;;;;;;;;;5036265;28;19929;-78
2023/12/13 02:01:20;;;;;;;;;;;;;;;;;;5004282;28;19913;-78
2023/12/13 02:03:45;;;;;;;;;;;;;;;;;;5018383;28;19928;-78
2023/12/13 02:06:10;;;;;;;;;;;;;;;;;;4998554;28;20214;-79
2023/12/13 02:08:35;;;;;;;;;;;;;;;;;;5002793;28;20024;-78
2023/12/13 02:11:01;;;;;;;;;;;;;;;;;;5003415;28;20573;-77
2023/12/13 02:13:26;;;;;;;;;;;;;;;;;;5016929;28;19917;-77
2023/12/13 02:15:51;;;;;;;;;;;;;;;;;;5007535;28;19925;-77
2023/12/13 02:18:17;;;;;;;;;;;;;;;;;;5018525;28;19937;-77
2023/12/13 02:20:42;;;;;;;;;;;;;;;;;;5017328;28;20361;-77
2023/12/13 02:23:10;;;;;;;;;;;;;;;;;;5014263;28;20288;-78
2023/12/13 02:25:37;;;;;;;;;;;;;;;;;;5004951;28;20147;-78
2023/12/13 02:28:03;;;;;;;;;;;;;;;;;;5019712;28;20618;-78
2023/12/13 02:30:29;;;;;;;;;;;;;;;;;;5004103;28;19932;-78
2023/12/13 02:32:54;;;;;;;;;;;;;;;;;;4999143;28;20054;-78
2023/12/13 02:35:20;;;;;;;;;;;;;;;;;;5013234;28;19917;-78
2023/12/13 02:37:48;;;;;;;;;;;;;;;;;;5006089;28;19918;-78
2023/12/13 02:40:14;;;;;;;;;;;;;;;;;;5002562;28;19913;-78
2023/12/13 02:42:39;;;;;;;;;;;;;;;;;;5018761;28;19928;-79
2023/12/13 02:45:04;;;;;;;;;;;;;;;;;;4998818;28;19925;-79
2023/12/13 02:47:30;;;;;;;;;;;;;;;;;;5001296;28;19921;-78
2023/12/13 02:49:55;;;;;;;;;;;;;;;;;;5015902;28;20285;-78
2023/12/13 02:52:23;;;;;;;;;;;;;;;;;;5002563;28;19917;-78
2023/12/13 02:54:48;;;;;;;;;;;;;;;;;;5017597;28;19920;-78
2023/12/13 02:57:14;;;;;;;;;;;;;;;;;;4992654;28;19944;-78
2023/12/13 02:59:39;;;;;;;;;;;;;;;;;;5003316;28;19922;-77
2023/12/13 03:02:04;;;;;;;;;;;;;;;;;;5003101;28;19921;-78
2023/12/13 03:04:30;;;;;;;;;;;;;;;;;;5013984;28;19952;-78
2023/12/13 03:06:55;;;;;;;;;;;;;;;;;;5004418;28;20006;-79
2023/12/13 03:09:21;;;;;;;;;;;;;;;;;;5016851;28;19921;-79
2023/12/13 03:11:46;;;;;;;;;;;;;;;;;;5003953;28;20356;-78
2023/12/13 03:14:11;;;;;;;;;;;;;;;;;;5001939;28;19967;-78
2023/12/13 03:16:37;;;;;;;;;;;;;;;;;;5019081;28;21526;-80
2023/12/13 03:19:03;;;;;;;;;;;;;;;;;;5004003;28;19941;-78
2023/12/13 03:21:28;;;;;;;;;;;;;;;;;;5001839;28;20344;-78
2023/12/13 03:23:54;;;;;;;;;;;;;;;;;;5018515;28;20397;-79
2023/12/13 03:26:19;;;;;;;;;;;;;;;;;;5000708;28;20351;-77
2023/12/13 03:28:44;;;;;;;;;;;;;;;;;;5017237;28;19956;-78
2023/12/13 03:31:09;;;;;;;;;;;;;;;;;;5003857;28;19928;-78
2023/12/13 03:33:35;;;;;;;;;;;;;;;;;;5002386;28;20354;-78
2023/12/13 03:36:00;;;;;;;;;;;;;;;;;;5018652;28;19980;-77
2023/12/13 03:38:25;;;;;;;;;;;;;;;;;;5017518;28;19917;-78
2023/12/13 03:40:51;;;;;;;;;;;;;;;;;;5015364;28;20146;-78
2023/12/13 03:43:16;;;;;;;;;;;;;;;;;;5016003;28;20030;-77
2023/12/13 03:45:44;;;;;;;;;;;;;;;;;;4999937;28;19925;-78
2023/12/13 03:48:09;;;;;;;;;;;;;;;;;;5002697;28;19922;-78
2023/12/13 03:50:35;;;;;;;;;;;;;;;;;;5002451;28;20096;-78
2023/12/13 03:53:00;;;;;;;;;;;;;;;;;;5016789;28;20671;-77
2023/12/13 03:55:25;;;;;;;;;;;;;;;;;;5002290;28;19921;-77
2023/12/13 03:57:53;;;;;;;;;;;;;;;;;;5015053;28;20219;-78
2023/12/13 04:00:18;;;;;;;;;;;;;;;;;;5000895;28;19924;-78
2023/12/13 04:02:43;;;;;;;;;;;;;;;;;;5002735;28;19921;-78
2023/12/13 04:05:09;;;;;;;;;;;;;;;;;;5015235;28;19937;-78
2023/12/13 04:07:34;;;;;;;;;;;;;;;;;;5019207;28;20419;-78
2023/12/13 04:09:59;;;;;;;;;;;;;;;;;;5016429;28;19921;-78
2023/12/13 04:12:25;;;;;;;;;;;;;;;;;;5004100;28;20538;-78
2023/12/13 04:14:50;;;;;;;;;;;;;;;;;;5023437;28;19978;-78
2023/12/13 04:17:17;;;;;;;;;;;;;;;;;;5015399;28;19917;-79
2023/12/13 04:19:43;;;;;;;;;;;;;;;;;;5005207;28;19987;-78
2023/12/13 04:22:08;;;;;;;;;;;;;;;;;;5015394;28;20337;-79
2023/12/13 04:24:33;;;;;;;;;;;;;;;;;;5019666;28;19975;-78
2023/12/13 04:26:59;;;;;;;;;;;;;;;;;;4998635;28;20059;-78
2023/12/13 04:29:24;;;;;;;;;;;;;;;;;;5006893;28;20387;-78
2023/12/13 04:31:50;;;;;;;;;;;;;;;;;;5001441;28;19921;-78
2023/12/13 04:34:15;;;;;;;;;;;;;;;;;;5000271;28;20134;-79
2023/12/13 04:36:40;;;;;;;;;;;;;;;;;;5003497;28;19928;-78
2023/12/13 04:39:05;;;;;;;;;;;;;;;;;;5015114;28;19928;-77
2023/12/13 04:41:32;;;;;;;;;;;;;;;;;;5001723;28;20028;-78
2023/12/13 04:43:57;;;;;;;;;;;;;;;;;;5016865;28;19925;-76
2023/12/13 04:46:22;;;;;;;;;;;;;;;;;;4997686;28;20412;-77
2023/12/13 04:48:48;;;;;;;;;;;;;;;;;;5016809;28;19980;-77
2023/12/13 04:51:13;;;;;;;;;;;;;;;;;;5015972;28;19921;-76
2023/12/13 04:53:38;;;;;;;;;;;;;;;;;;5015948;28;19932;-77
2023/12/13 04:56:03;;;;;;;;;;;;;;;;;;4999295;28;19957;-76
2023/12/13 04:58:29;;;;;;;;;;;;;;;;;;4988061;28;19929;-77
2023/12/13 05:00:54;;;;;;;;;;;;;;;;;;5002285;28;19991;-78
2023/12/13 05:03:19;;;;;;;;;;;;;;;;;;4999301;28;19921;-78
2023/12/13 05:05:45;;;;;;;;;;;;;;;;;;5014618;28;20012;-77
2023/12/13 05:08:12;;;;;;;;;;;;;;;;;;5013530;28;20023;-78
2023/12/13 05:10:40;;;;;;;;;;;;;;;;;;5002071;28;19961;-77
2023/12/13 05:13:06;;;;;;;;;;;;;;;;;;5004811;28;19923;-78
2023/12/13 05:15:32;;;;;;;;;;;;;;;;;;5005621;28;20196;-77
2023/12/13 05:17:57;;;;;;;;;;;;;;;;;;5002879;28;19921;-78
2023/12/13 05:20:23;;;;;;;;;;;;;;;;;;5035774;28;19987;-78
2023/12/13 05:22:48;;;;;;;;;;;;;;;;;;4998335;28;19921;-77
2023/12/13 05:25:13;;;;;;;;;;;;;;;;;;5005276;28;19920;-78
2023/12/13 05:27:39;;;;;;;;;;;;;;;;;;5020299;28;19918;-77
2023/12/13 05:30:04;;;;;;;;;;;;;;;;;;5015692;28;20396;-77
2023/12/13 05:32:29;;;;;;;;;;;;;;;;;;5002508;28;19928;-76
2023/12/13 05:34:54;;;;;;;;;;;;;;;;;;5003543;28;20316;-77
2023/12/13 05:37:20;;;;;;;;;;;;;;;;;;5001989;28;20161;-77
2023/12/13 05:39:45;;;;;;;;;;;;;;;;;;5002319;28;19917;-77
2023/12/13 05:42:10;;;;;;;;;;;;;;;;;;5002873;28;20011;-77
2023/12/13 05:44:35;;;;;;;;;;;;;;;;;;5017833;28;19929;-77
2023/12/13 05:47:01;;;;;;;;;;;;;;;;;;5004191;28;20552;-77
2023/12/13 05:49:26;;;;;;;;;;;;;;;;;;5018228;28;21721;-78
2023/12/13 05:51:52;;;;;;;;;;;;;;;;;;5032189;28;19943;-78
2023/12/13 05:54:18;;;;;;;;;;;;;;;;;;5017808;28;19963;-78
2023/12/13 05:56:44;;;;;;;;;;;;;;;;;;5005026;28;19971;-78
2023/12/13 05:59:10;;;;;;;;;;;;;;;;;;5002890;28;20203;-77
2023/12/13 06:01:36;;;;;;;;;;;;;;;;;;5003882;28;21514;-78
2023/12/13 06:04:01;;;;;;;;;;;;;;;;;;5004290;28;19933;-78
2023/12/13 06:06:26;;;;;;;;;;;;;;;;;;5004258;28;20020;-78
2023/12/13 06:08:51;;;;;;;;;;;;;;;;;;5004345;28;19917;-78
2023/12/13 06:11:17;;;;;;;;;;;;;;;;;;5002599;28;20003;-78
2023/12/13 06:13:42;;;;;;;;;;;;;;;;;;5005625;28;19971;-78
2023/12/13 06:16:12;;;;;;;;;;;;;;;;;;5004223;28;19921;-77
2023/12/13 06:18:37;;;;;;;;;;;;;;;;;;5018352;28;19921;-78
2023/12/13 06:21:02;;;;;;;;;;;;;;;;;;5003685;28;19945;-78
2023/12/13 06:23:28;;;;;;;;;;;;;;;;;;5008271;28;20546;-77
2023/12/13 06:25:53;;;;;;;;;;;;;;;;;;5004533;28;19922;-78
2023/12/13 06:28:18;;;;;;;;;;;;;;;;;;5007257;28;19963;-77
2023/12/13 06:30:43;;;;;;;;;;;;;;;;;;5005701;28;20016;-77
2023/12/13 06:33:09;;;;;;;;;;;;;;;;;;5005328;28;19917;-77
2023/12/13 06:35:35;;;;;;;;;;;;;;;;;;5001933;28;19948;-77
2023/12/13 06:38:03;;;;;;;;;;;;;;;;;;5006322;28;21492;-78
2023/12/13 06:40:29;;;;;;;;;;;;;;;;;;5000569;28;19928;-77
2023/12/13 06:42:54;;;;;;;;;;;;;;;;;;5004875;28;20437;-77
2023/12/13 06:45:20;;;;;;;;;;;;;;;;;;4999946;28;20444;-77
2023/12/13 06:47:46;;;;;;;;;;;;;;;;;;5018834;28;19917;-77
2023/12/13 06:50:11;;;;;;;;;;;;;;;;;;5016705;28;19922;-77
2023/12/13 06:52:36;;;;;;;;;;;;;;;;;;5016032;28;19924;-76
2023/12/13 06:55:03;;;;;;;;;;;;;;;;;;5017215;28;20396;-77
2023/12/13 06:57:28;;;;;;;;;;;;;;;;;;5031045;28;19922;-77
2023/12/13 06:59:54;;;;;;;;;;;;;;;;;;5001610;28;20043;-77
2023/12/13 07:02:19;;;;;;;;;;;;;;;;;;5016982;28;20435;-77
2023/12/13 07:04:45;;;;;;;;;;;;;;;;;;5002030;28;20762;-77
2023/12/13 07:07:15;;;;;;;;;;;;;;;;;;5017731;28;19973;-77
2023/12/13 07:09:40;;;;;;;;;;;;;;;;;;5001465;28;19921;-76
2023/12/13 07:12:05;;;;;;;;;;;;;;;;;;5021807;28;19971;-75
2023/12/13 07:14:35;;;;;;;;;;;;;;;;;;5024869;28;19949;-77
2023/12/13 07:17:05;;;;;;;;;;;;;;;;;;4990967;28;19921;-76
2023/12/13 07:19:30;;;;;;;;;;;;;;;;;;5014938;28;19916;-77
2023/12/13 07:21:55;;;;;;;;;;;;;;;;;;5002941;28;19921;-76
2023/12/13 07:24:21;;;;;;;;;;;;;;;;;;5017269;28;19995;-76
2023/12/13 07:26:46;;;;;;;;;;;;;;;;;;5017946;28;19921;-76
2023/12/13 07:29:11;;;;;;;;;;;;;;;;;;5002376;28;19918;-77
2023/12/13 07:31:37;;;;;;;;;;;;;;;;;;5000136;28;20009;-77
2023/12/13 07:34:03;;;;;;;;;;;;;;;;;;5016763;28;20389;-77
2023/12/13 07:36:28;;;;;;;;;;;;;;;;;;5002833;28;19917;-76
2023/12/13 07:38:53;;;;;;;;;;;;;;;;;;4999802;28;20391;-76
2023/12/13 07:41:19;;;;;;;;;;;;;;;;;;4996321;28;19921;-76
2023/12/13 07:43:44;;;;;;;;;;;;;;;;;;5016536;28;19917;-76
2023/12/13 07:46:10;;;;;;;;;;;;;;;;;;5033257;28;20249;-76
2023/12/13 07:48:36;;;;;;;;;;;;;;;;;;5002282;28;20663;-78
2023/12/13 07:51:01;;;;;;;;;;;;;;;;;;5016527;28;19925;-76
2023/12/13 07:53:27;;;;;;;;;;;;;;;;;;5014862;28;20345;-76
2023/12/13 07:55:54;;;;;;;;;;;;;;;;;;5003979;28;20329;-76
2023/12/13 07:58:20;;;;;;;;;;;;;;;;;;4997441;28;20078;-77
2023/12/13 08:00:45;;;;;;;;;;;;;;;;;;4999912;28;20004;-75
2023/12/13 08:03:13;;;;;;;;;;;;;;;;;;5008751;28;19974;-75
2023/12/13 08:06:14;;;;;;;;;;;;;;;;;;5041425;28;20423;-73
2023/12/13 08:12:36;;;;;;;;;;;;;;;;;;5025380;23;19934;-75
2023/12/13 08:15:02;;;;;;;;;;;;;;;;;;4983089;28;20270;-75
2023/12/13 08:17:29;;;;;;;;;;;;;;;;;;5000245;28;19993;-75
2023/12/13 08:19:54;;;;;;;;;;;;;;;;;;4993925;28;19983;-75
2023/12/13 08:22:20;;;;;;;;;;;;;;;;;;4982448;28;20011;-75
2023/12/13 08:24:45;;;;;;;;;;;;;;;;;;4997308;28;20624;-75
2023/12/13 08:27:10;;;;;;;;;;;;;;;;;;4982850;28;19918;-75
2023/12/13 08:29:36;;;;;;;;;;;;;;;;;;4982356;28;20622;-74
2023/12/13 08:32:01;;;;;;;;;;;;;;;;;;4984803;28;19984;-74
2023/12/13 08:34:26;;;;;;;;;;;;;;;;;;4983845;28;19983;-75
2023/12/13 08:36:52;;;;;;;;;;;;;;;;;;4981971;28;20365;-74
2023/12/13 08:39:17;;;;;;;;;;;;;;;;;;4986010;28;19928;-74
2023/12/13 08:41:42;;;;;;;;;;;;;;;;;;4987782;28;19980;-74
2023/12/13 08:44:08;;;;;;;;;;;;;;;;;;4978379;28;20100;-74
2023/12/13 08:46:33;;;;;;;;;;;;;;;;;;4979446;28;19921;-74
2023/12/13 08:48:59;;;;;;;;;;;;;;;;;;4985718;28;19976;-74
2023/12/13 08:51:24;;;;;;;;;;;;;;;;;;4984262;28;20012;-74
2023/12/13 08:53:55;;;;;;;;;;;;;;;;;;4990970;28;20211;-74
2023/12/13 08:56:20;;;;;;;;;;;;;;;;;;4968479;28;19997;-75
2023/12/13 08:58:45;;;;;;;;;;;;;;;;;;4985548;28;19960;-74
2023/12/13 09:01:11;;;;;;;;;;;;;;;;;;4975781;28;19992;-75
2023/12/13 09:03:36;;;;;;;;;;;;;;;;;;4990780;28;20615;-75
2023/12/13 09:06:01;;;;;;;;;;;;;;;;;;4998357;28;19949;-74
2023/12/13 09:08:26;;;;;;;;;;;;;;;;;;4984572;28;20012;-74
2023/12/13 09:10:52;;;;;;;;;;;;;;;;;;4971946;28;20494;-74
2023/12/13 09:13:17;;;;;;;;;;;;;;;;;;4986611;28;19987;-75
2023/12/13 09:15:42;;;;;;;;;;;;;;;;;;4990359;28;20482;-75
2023/12/13 09:18:08;;;;;;;;;;;;;;;;;;4986530;28;20027;-74
2023/12/13 09:20:33;;;;;;;;;;;;;;;;;;4985227;28;19947;-75
2023/12/13 09:22:59;;;;;;;;;;;;;;;;;;4982617;28;19940;-74
2023/12/13 09:25:25;;;;;;;;;;;;;;;;;;4984318;28;20529;-75
2023/12/13 09:27:50;;;;;;;;;;;;;;;;;;4972457;28;19922;-74
2023/12/13 09:30:16;;;;;;;;;;;;;;;;;;4987705;28;19929;-75
2023/12/13 09:32:41;;;;;;;;;;;;;;;;;;4986790;28;19925;-74
2023/12/13 09:35:07;;;;;;;;;;;;;;;;;;4986056;28;19922;-75
2023/12/13 09:37:33;;;;;;;;;;;;;;;;;;4976799;28;19917;-74
2023/12/13 09:40:02;;;;;;;;;;;;;;;;;;4986783;28;20292;-73
2023/12/13 09:42:27;;;;;;;;;;;;;;;;;;4975506;28;20063;-75
2023/12/13 09:44:53;;;;;;;;;;;;;;;;;;4987170;28;20157;-75
2023/12/13 09:47:18;;;;;;;;;;;;;;;;;;4972845;28;19975;-75
2023/12/13 09:49:43;;;;;;;;;;;;;;;;;;4983725;28;19932;-76
2023/12/13 09:52:09;;;;;;;;;;;;;;;;;;4989255;28;20262;-76
2023/12/13 09:54:34;;;;;;;;;;;;;;;;;;4981936;28;19929;-74
2023/12/13 09:56:59;;;;;;;;;;;;;;;;;;4981570;28;19921;-74
2023/12/13 09:59:25;;;;;;;;;;;;;;;;;;4988130;28;19949;-75
2023/12/13 10:01:50;;;;;;;;;;;;;;;;;;4983784;28;19922;-75
2023/12/13 10:04:15;;;;;;;;;;;;;;;;;;4983944;28;19921;-76
2023/12/13 10:06:45;;;;;;;;;;;;;;;;;;4987809;28;19932;-71
2023/12/13 10:09:11;;;;;;;;;;;;;;;;;;4986467;28;19928;-74
2023/12/13 10:11:36;;;;;;;;;;;;;;;;;;4991012;28;19926;-75
2023/12/13 10:14:02;;;;;;;;;;;;;;;;;;4983595;28;20297;-74
2023/12/13 10:19:44;;;;;;;;;;;;;;;;;;4986508;28;19945;-74
2023/12/13 10:22:09;;;;;;;;;;;;;;;;;;4996022;28;19956;-73
2023/12/13 10:24:35;;;;;;;;;;;;;;;;;;4980684;28;20059;-73
2023/12/13 10:27:00;;;;;;;;;;;;;;;;;;4983419;28;20332;-72
2023/12/13 10:29:25;;;;;;;;;;;;;;;;;;4982732;28;19990;-73
2023/12/13 10:31:50;;;;;;;;;;;;;;;;;;5000748;28;19924;-73
2023/12/13 10:34:16;;;;;;;;;;;;;;;;;;4981200;28;19945;-73
2023/12/13 10:36:42;;;;;;;;;;;;;;;;;;4982867;28;20049;-73
2023/12/13 10:39:07;;;;;;;;;;;;;;;;;;4981807;28;19932;-72
2023/12/13 10:41:33;;;;;;;;;;;;;;;;;;4980510;28;20269;-72
2023/12/13 10:43:58;;;;;;;;;;;;;;;;;;4969721;28;20321;-73
2023/12/13 10:46:23;;;;;;;;;;;;;;;;;;4980723;28;19948;-72
2023/12/13 10:48:49;;;;;;;;;;;;;;;;;;4971564;28;20036;-73
2023/12/13 10:51:14;;;;;;;;;;;;;;;;;;4981234;28;20341;-72
2023/12/13 10:53:41;;;;;;;;;;;;;;;;;;4984120;28;20396;-72
2023/12/13 10:56:06;;;;;;;;;;;;;;;;;;4980343;28;19957;-72
2023/12/13 10:58:32;;;;;;;;;;;;;;;;;;5000470;28;20021;-73
2023/12/13 11:00:58;;;;;;;;;;;;;;;;;;4998682;28;19922;-72
2023/12/13 11:03:23;;;;;;;;;;;;;;;;;;4986102;28;19980;-72
2023/12/13 11:05:48;;;;;;;;;;;;;;;;;;4983168;28;19921;-72
2023/12/13 11:08:14;;;;;;;;;;;;;;;;;;4984073;28;20396;-72
2023/12/13 11:10:40;;;;;;;;;;;;;;;;;;4985195;28;19918;-71
2023/12/13 11:13:05;;;;;;;;;;;;;;;;;;4981327;28;20078;-71
2023/12/13 11:15:30;;;;;;;;;;;;;;;;;;4981413;28;19981;-71
2023/12/13 11:18:00;;;;;;;;;;;;;;;;;;4985843;28;20356;-72
2023/12/13 11:20:26;;;;;;;;;;;;;;;;;;4970294;28;19928;-72
2023/12/13 11:22:52;;;;;;;;;;;;;;;;;;4981885;28;20082;-71
2023/12/13 11:25:18;;;;;;;;;;;;;;;;;;4984172;28;20371;-71
2023/12/13 11:27:43;;;;;;;;;;;;;;;;;;4981441;28;19997;-71
2023/12/13 11:30:08;;;;;;;;;;;;;;;;;;4979763;28;19921;-71
2023/12/13 11:32:34;;;;;;;;;;;;;;;;;;4971000;28;21487;-71
2023/12/13 11:34:59;;;;;;;;;;;;;;;;;;4980899;28;19921;-72
2023/12/13 11:37:29;;;;;;;;;;;;;;;;;;4983321;28;20718;-71
2023/12/13 11:39:56;;;;;;;;;;;;;;;;;;4984560;28;19971;-71
2023/12/13 11:42:21;;;;;;;;;;;;;;;;;;4984074;28;22060;-71
2023/12/13 11:44:47;;;;;;;;;;;;;;;;;;4967413;28;19987;-71
2023/12/13 11:47:12;;;;;;;;;;;;;;;;;;4980819;28;20016;-73
2023/12/13 11:56:13;;;;;;;;;;;;;;;;;;4981927;28;20092;-69
2023/12/13 11:58:49;;;;;;;;;;;;;;;;;;4981743;28;20662;-69
2023/12/13 12:01:49;;;;;;;;;;;;;;;;;;5002071;28;19928;-72
2023/12/13 12:04:15;;;;;;;;;;;;;;;;;;4990825;28;19992;-71
2023/12/13 12:06:40;;;;;;;;;;;;;;;;;;4982153;28;19925;-70
2023/12/13 12:09:06;;;;;;;;;;;;;;;;;;4998941;28;20049;-71
2023/12/13 12:11:32;;;;;;;;;;;;;;;;;;4984929;28;19968;-71
2023/12/13 12:13:57;;;;;;;;;;;;;;;;;;5003826;28;20164;-70
2023/12/13 12:16:25;;;;;;;;;;;;;;;;;;4985236;28;20429;-71
2023/12/13 12:18:52;;;;;;;;;;;;;;;;;;4984297;28;19928;-71
2023/12/13 12:21:17;;;;;;;;;;;;;;;;;;4998162;28;20058;-70
2023/12/13 12:23:42;;;;;;;;;;;;;;;;;;4989096;28;19917;-70
2023/12/13 12:26:08;;;;;;;;;;;;;;;;;;5002219;28;20020;-70
2023/12/13 12:28:33;;;;;;;;;;;;;;;;;;4988471;28;20243;-71
2023/12/13 12:30:58;;;;;;;;;;;;;;;;;;4987974;28;20475;-71
2023/12/13 12:33:24;;;;;;;;;;;;;;;;;;4997778;28;19921;-70
2023/12/13 12:35:49;;;;;;;;;;;;;;;;;;4978865;28;19933;-71
2023/12/13 12:38:17;;;;;;;;;;;;;;;;;;4979939;28;19945;-70
2023/12/13 12:40:48;;;;;;;;;;;;;;;;;;4969528;28;19972;-70
2023/12/13 12:43:13;;;;;;;;;;;;;;;;;;4983653;28;19932;-70
2023/12/13 12:45:42;;;;;;;;;;;;;;;;;;4982254;28;20123;-70
2023/12/13 12:48:07;;;;;;;;;;;;;;;;;;4987056;28;20365;-70
2023/12/13 12:50:32;;;;;;;;;;;;;;;;;;4979675;28;19918;-71
2023/12/13 12:52:57;;;;;;;;;;;;;;;;;;4978147;28;20843;-70
2023/12/13 12:55:23;;;;;;;;;;;;;;;;;;4967832;28;20331;-70
2023/12/13 12:57:50;;;;;;;;;;;;;;;;;;4963467;28;20404;-70
2023/12/13 13:00:18;;;;;;;;;;;;;;;;;;4979257;28;20463;-70
2023/12/13 13:02:46;;;;;;;;;;;;;;;;;;4988262;28;19921;-71
2023/12/13 13:05:11;;;;;;;;;;;;;;;;;;4997424;28;19932;-70
2023/12/13 13:07:39;;;;;;;;;;;;;;;;;;4981346;28;19920;-71
2023/12/13 13:10:05;;;;;;;;;;;;;;;;;;4978050;28;20072;-72
2023/12/13 13:12:30;;;;;;;;;;;;;;;;;;4970803;28;19971;-71
2023/12/13 13:14:56;;;;;;;;;;;;;;;;;;4980934;28;19928;-72
2023/12/13 13:17:23;;;;;;;;;;;;;;;;;;4978514;28;19987;-75
2023/12/13 13:19:49;;;;;;;;;;;;;;;;;;4981000;28;19965;-72
2023/12/13 13:22:17;;;;;;;;;;;;;;;;;;4982638;28;19917;-72
2023/12/13 13:24:42;;;;;;;;;;;;;;;;;;4968908;28;20295;-73
2023/12/13 13:27:10;;;;;;;;;;;;;;;;;;4983313;28;19960;-72
2023/12/13 13:29:39;;;;;;;;;;;;;;;;;;4988443;28;20008;-73
2023/12/13 13:32:04;;;;;;;;;;;;;;;;;;4983290;28;19918;-73
2023/12/13 13:34:29;;;;;;;;;;;;;;;;;;4982032;28;20165;-72
2023/12/13 13:36:57;;;;;;;;;;;;;;;;;;4998768;28;19932;-72
2023/12/13 13:39:22;;;;;;;;;;;;;;;;;;4983844;28;19940;-73
2023/12/13 13:41:48;;;;;;;;;;;;;;;;;;4975019;28;20368;-74
2023/12/13 13:44:13;;;;;;;;;;;;;;;;;;4986696;28;20411;-73
2023/12/13 13:46:39;;;;;;;;;;;;;;;;;;4990107;28;19926;-73
2023/12/13 13:49:04;;;;;;;;;;;;;;;;;;4985091;28;19928;-72
2023/12/13 13:51:29;;;;;;;;;;;;;;;;;;5000076;28;20009;-74
2023/12/13 13:53:55;;;;;;;;;;;;;;;;;;4983110;28;20117;-72
2023/12/13 13:56:20;;;;;;;;;;;;;;;;;;4985419;28;20011;-73
2023/12/13 13:58:48;;;;;;;;;;;;;;;;;;4985367;28;19928;-75
2023/12/13 14:01:14;;;;;;;;;;;;;;;;;;4992239;28;19917;-75
2023/12/13 14:03:39;;;;;;;;;;;;;;;;;;4985496;28;19922;-74
2023/12/13 14:06:05;;;;;;;;;;;;;;;;;;4988297;28;20356;-77
2023/12/13 14:08:30;;;;;;;;;;;;;;;;;;4991414;28;19929;-74
2023/12/13 14:10:55;;;;;;;;;;;;;;;;;;4972709;28;20047;-76
2023/12/13 14:13:20;;;;;;;;;;;;;;;;;;4985653;28;19926;-78
2023/12/13 14:15:48;;;;;;;;;;;;;;;;;;4986883;28;21531;-78
2023/12/13 14:18:13;;;;;;;;;;;;;;;;;;4989590;28;19918;-76
2023/12/13 14:20:38;;;;;;;;;;;;;;;;;;4983396;28;19988;-78
2023/12/13 14:23:05;;;;;;;;;;;;;;;;;;4990787;28;19928;-78
2023/12/13 14:25:30;;;;;;;;;;;;;;;;;;4991967;28;19922;-77
2023/12/13 14:27:56;;;;;;;;;;;;;;;;;;4983674;28;20438;-73
2023/12/13 14:30:22;;;;;;;;;;;;;;;;;;4969962;28;20482;-77
2023/12/13 14:32:48;;;;;;;;;;;;;;;;;;4973783;28;20435;-74
2023/12/13 14:35:13;;;;;;;;;;;;;;;;;;4984185;28;20032;-77
2023/12/13 14:37:42;;;;;;;;;;;;;;;;;;4983518;28;19953;-75
2023/12/13 14:40:11;;;;;;;;;;;;;;;;;;4997962;28;19971;-77
2023/12/13 14:42:40;;;;;;;;;;;;;;;;;;4986420;28;19924;-77
2023/12/13 14:45:05;;;;;;;;;;;;;;;;;;4984949;28;20184;-77
2023/12/13 14:47:31;;;;;;;;;;;;;;;;;;4985695;28;20015;-73
2023/12/13 14:49:56;;;;;;;;;;;;;;;;;;4974112;28;20420;-75
2023/12/13 14:52:22;;;;;;;;;;;;;;;;;;4989978;28;19918;-76
2023/12/13 14:54:48;;;;;;;;;;;;;;;;;;4975052;28;20357;-73
2023/12/13 14:57:13;;;;;;;;;;;;;;;;;;4967558;28;19921;-76
2023/12/13 14:59:38;;;;;;;;;;;;;;;;;;4987515;28;20377;-75
2023/12/13 15:02:04;;;;;;;;;;;;;;;;;;4994313;28;19976;-71
2023/12/13 15:04:32;;;;;;;;;;;;;;;;;;4993800;28;20135;-74
2023/12/13 15:07:00;;;;;;;;;;;;;;;;;;4983986;28;20392;-74
2023/12/13 15:09:26;;;;;;;;;;;;;;;;;;4983759;28;20013;-72
2023/12/13 15:11:52;;;;;;;;;;;;;;;;;;4972582;28;20344;-73
2023/12/13 15:14:17;;;;;;;;;;;;;;;;;;4973929;28;19921;-73
2023/12/13 15:16:42;;;;;;;;;;;;;;;;;;4968315;28;20597;-73
2023/12/13 15:19:08;;;;;;;;;;;;;;;;;;4982222;28;19917;-76
2023/12/13 15:21:33;;;;;;;;;;;;;;;;;;4985652;28;19917;-74
2023/12/13 15:23:58;;;;;;;;;;;;;;;;;;4987188;28;19917;-76
2023/12/13 15:26:23;;;;;;;;;;;;;;;;;;4982793;28;20262;-74
2023/12/13 15:28:49;;;;;;;;;;;;;;;;;;4997318;28;19921;-74
2023/12/13 15:31:14;;;;;;;;;;;;;;;;;;4964663;28;19921;-78
2023/12/13 15:33:40;;;;;;;;;;;;;;;;;;4988220;28;19972;-77
2023/12/13 15:36:06;;;;;;;;;;;;;;;;;;4982772;28;19928;-76
2023/12/13 15:41:47;;;;;;;;;;;;;;;;;;4979687;28;19921;-73
2023/12/13 15:44:18;;;;;;;;;;;;;;;;;;4986302;28;19917;-74
2023/12/13 15:50:05;;;;;;;;;;;;;;;;;;4985520;28;20443;-74
2023/12/13 15:52:30;;;;;;;;;;;;;;;;;;4986719;28;21585;-73
2023/12/13 15:54:56;;;;;;;;;;;;;;;;;;4968984;28;20265;-75
2023/12/13 15:57:21;;;;;;;;;;;;;;;;;;4974536;28;19979;-73
2023/12/13 16:03:03;;;;;;;;;;;;;;;;;;4981478;28;20705;-72
2023/12/13 16:05:31;;;;;;;;;;;;;;;;;;4971330;28;20441;-73
2023/12/13 16:07:57;;;;;;;;;;;;;;;;;;4998025;28;20022;-74
2023/12/13 16:10:22;;;;;;;;;;;;;;;;;;4982094;28;20369;-73
2023/12/13 16:12:50;;;;;;;;;;;;;;;;;;4964204;28;19936;-75
2023/12/13 16:15:15;;;;;;;;;;;;;;;;;;4979816;28;19923;-73
2023/12/13 16:17:41;;;;;;;;;;;;;;;;;;4982592;28;19979;-77
2023/12/13 16:20:08;;;;;;;;;;;;;;;;;;4990713;28;21405;-73
2023/12/13 16:22:33;;;;;;;;;;;;;;;;;;4982669;28;19917;-75
2023/12/13 16:24:59;;;;;;;;;;;;;;;;;;4970266;28;19922;-74
2023/12/13 16:27:24;;;;;;;;;;;;;;;;;;4980947;28;19936;-75
2023/12/13 16:29:49;;;;;;;;;;;;;;;;;;4982610;28;20060;-74
2023/12/13 16:32:15;;;;;;;;;;;;;;;;;;4982637;28;20456;-72
2023/12/13 16:34:40;;;;;;;;;;;;;;;;;;4982726;28;20494;-72
2023/12/13 16:37:06;;;;;;;;;;;;;;;;;;4969206;28;19921;-73
2023/12/13 16:43:02;;;;;;;;;;;;;;;;;;4981442;28;21625;-74
2023/12/13 16:45:28;;;;;;;;;;;;;;;;;;4994410;28;19926;-73
2023/12/13 16:47:53;;;;;;;;;;;;;;;;;;4981765;28;19924;-72
2023/12/13 16:50:18;;;;;;;;;;;;;;;;;;4981919;28;19927;-74
2023/12/13 16:52:44;;;;;;;;;;;;;;;;;;4977802;28;19918;-75
2023/12/13 16:55:09;;;;;;;;;;;;;;;;;;4978185;28;20359;-74
2023/12/13 16:57:34;;;;;;;;;;;;;;;;;;4983998;28;20015;-75
2023/12/13 16:59:59;;;;;;;;;;;;;;;;;;4982221;28;20198;-76
2023/12/13 17:02:25;;;;;;;;;;;;;;;;;;4984026;28;19922;-76